WetterOnline ( https://www.wetteronline.de )

Wetter aktuell Rossow

Aktuelles Wetter: Ueckermünde (7m)

6-stündlich | Neueste Meldungen
Ortszeit Temperatur Wetter
Do, 03.12. 1:00 -0.3° C bedeckt
Mi, 02.12. 19:00 1.3° C bedeckt
Mi, 02.12. 13:00 2.0° C bedeckt
Mi, 02.12. 7:00 1.6° C bedeckt
Mi, 02.12. 1:00 2.4° C bedeckt
Di, 01.12. 19:00 2.9° C bedeckt
Di, 01.12. 13:00 3.0° C bedeckt
Di, 01.12. 7:00 1.3° C bedeckt
Ortszeit Temperatur Wetter
Do, 03.12. 2:30 -0.8° C bedeckt
Do, 03.12. 2:20 -0.8° C bedeckt
Do, 03.12. 2:10 -0.8° C bedeckt
Do, 03.12. 2:00 -0.6° C bedeckt
Do, 03.12. 1:50 -0.6° C bedeckt
Do, 03.12. 1:40 -0.6° C bedeckt
Do, 03.12. 1:30 -0.5° C bedeckt
Do, 03.12. 1:00 -0.3° C bedeckt
Ortszeit Relative Feuchte Sichtweite
Do, 03.12. 1:00 83% 6 km
Mi, 02.12. 19:00 83% 7 km
Mi, 02.12. 13:00 82% 9 km
Mi, 02.12. 7:00 89% 8 km
Mi, 02.12. 1:00 90% 9 km
Di, 01.12. 19:00 85% 19 km
Di, 01.12. 13:00 81% 15 km
Di, 01.12. 7:00 82% 29 km
Ortszeit Relative Feuchte Sichtweite
Do, 03.12. 2:30 84% 6 km
Do, 03.12. 2:20 84% -
Do, 03.12. 2:10 84% -
Do, 03.12. 2:00 83% 6 km
Do, 03.12. 1:50 83% -
Do, 03.12. 1:40 83% -
Do, 03.12. 1:30 83% 6 km
Do, 03.12. 1:00 83% 6 km
Ortszeit Niederschlagsmenge Niederschlagsart
Do, 03.12. 1:00 0.0 l/m2 in 6 Std. -
Mi, 02.12. 19:00 0.0 l/m2 in 12 Std. -
Mi, 02.12. 13:00 0.0 l/m2 in 6 Std. -
Mi, 02.12. 7:00 0.1 l/m2 in 12 Std. Sprühregen
Mi, 02.12. 1:00 0.1 l/m2 in 6 Std. Regen
Di, 01.12. 19:00 0.0 l/m2 in 12 Std. -
Di, 01.12. 13:00 0.0 l/m2 in 6 Std. -
Di, 01.12. 7:00 0.1 l/m2 in 12 Std. Niederschlag
Ortszeit Niederschlagsmenge Niederschlagsart
Do, 03.12. 2:30 0.0 l/m2 in 1 Std. -
Do, 03.12. 2:20 keine Meldung -
Do, 03.12. 2:10 keine Meldung -
Do, 03.12. 2:00 0.0 l/m2 in 1 Std. -
Do, 03.12. 1:50 keine Meldung -
Do, 03.12. 1:40 keine Meldung -
Do, 03.12. 1:30 0.0 l/m2 in 1 Std. -
Do, 03.12. 1:00 0.0 l/m2 in 1 Std. -
Ortszeit Stärke Spitze Richtung
km/h Bft. km/h Grad Sektor
Do, 03.12. 1:00 18 3 32 160° S
Mi, 02.12. 19:00 14 3 22 160° S
Mi, 02.12. 13:00 11 2 18 160° S
Mi, 02.12. 7:00 6 1 13 130° SO
Mi, 02.12. 1:00 4 1 11 130° SO
Di, 01.12. 19:00 4 1 14 100° O
Di, 01.12. 13:00 11 2 20 160° S
Di, 01.12. 7:00 13 3 26 160° S
Ortszeit Stärke Spitze Richtung
km/h Bft. km/h Grad Sektor
Do, 03.12. 2:30 11 2 24 150° SO
Do, 03.12. 2:20 11 2 - 150° SO
Do, 03.12. 2:10 15 3 - 160° S
Do, 03.12. 2:00 14 3 25 150° SO
Do, 03.12. 1:50 14 3 - 150° SO
Do, 03.12. 1:40 13 3 - 150° SO
Do, 03.12. 1:30 14 3 25 160° S
Do, 03.12. 1:00 18 3 29 160° S
Ortszeit Untergrenze Bedeckung Gattung
total tief tief mittel hoch
Do, 03.12. 1:00 420 m 8/8 8/8 - - -
Mi, 02.12. 19:00 360 m 8/8 8/8 - - -
Mi, 02.12. 13:00 360 m 8/8 8/8 - - -
Mi, 02.12. 7:00 780 m 8/8 8/8 - - -
Mi, 02.12. 1:00 690 m 8/8 8/8 - - -
Di, 01.12. 19:00 750 m 8/8 8/8 - - -
Di, 01.12. 13:00 420 m 8/8 8/8 - - -
Di, 01.12. 7:00 840 m 8/8 8/8 - - -
Ortszeit Bedeckungsgrad in Achtel und Wolkenuntergrenze
Do, 03.12. 2:30 8(330m)
Do, 03.12. 2:20 8(330m)
Do, 03.12. 2:10 8(360m)
Do, 03.12. 2:00 8(360m)
Do, 03.12. 1:50 8(360m)
Do, 03.12. 1:40 8(360m)
Do, 03.12. 1:30 8(390m)
Do, 03.12. 1:00 8(420m)
Ortszeit Luftdruck NN (hPa) Tendenz (hPa in 3 Std.)
Do, 03.12. 1:00 1015 - 1,9
Mi, 02.12. 19:00 1017 - 1,5
Mi, 02.12. 13:00 1021 - 2,0
Mi, 02.12. 7:00 1023 - 0,4
Mi, 02.12. 1:00 1024 + 0,8
Di, 01.12. 19:00 1022 + 2,0
Di, 01.12. 13:00 1018 + 1,3
Di, 01.12. 7:00 1015 + 0,2
Ortszeit Luftdruck NN (hPa) Tendenz (hPa in 3 Std.)
Do, 03.12. 2:30 1014 - 1,7
Do, 03.12. 2:20 1014 keine Meldung
Do, 03.12. 2:10 1014 keine Meldung
Do, 03.12. 2:00 1014 - 1,6
Do, 03.12. 1:50 1014 keine Meldung
Do, 03.12. 1:40 1014 keine Meldung
Do, 03.12. 1:30 1014 - 1,8
Do, 03.12. 1:00 1015 - 1,9
Ortszeit Schneehöhe (cm)
Do, 03.12. 1:00 0
Mi, 02.12. 19:00 0
Mi, 02.12. 13:00 0
Mi, 02.12. 7:00 0
Mi, 02.12. 1:00 0
Di, 01.12. 19:00 0
Di, 01.12. 13:00 0
Di, 01.12. 7:00 0
Ortszeit Schneehöhe (cm)
Do, 03.12. 2:30 0
Do, 03.12. 2:20 0
Do, 03.12. 2:10 0
Do, 03.12. 2:00 0
Do, 03.12. 1:50 0
Do, 03.12. 1:40 0
Do, 03.12. 1:30 0
Do, 03.12. 1:00 0
Link zu dieser Seite / Seite empfehlen

Das Wetter in ...